createdAt,value
2018-09-29T00:00:36.548Z,10.10
2018-09-29T00:03:05.048Z,10.10
2018-09-29T00:05:33.466Z,10.00
2018-09-29T00:08:01.946Z,9.90
2018-09-29T00:10:30.388Z,9.90
2018-09-29T00:12:58.773Z,9.90
2018-09-29T00:15:27.167Z,9.80
2018-09-29T00:17:55.563Z,9.90
2018-09-29T00:20:23.993Z,9.90
2018-09-29T00:22:52.504Z,9.80
2018-09-29T00:25:21.638Z,9.90
2018-09-29T00:27:50.035Z,9.80
2018-09-29T00:30:18.486Z,9.80
2018-09-29T00:32:46.936Z,9.70
2018-09-29T00:35:15.349Z,9.70
2018-09-29T00:37:44.973Z,9.80
2018-09-29T00:40:13.630Z,9.80
2018-09-29T00:42:42.002Z,9.70
2018-09-29T00:45:10.544Z,9.70
2018-09-29T00:47:38.921Z,9.70
2018-09-29T00:50:07.386Z,9.80
2018-09-29T00:52:35.802Z,9.70
2018-09-29T00:55:04.212Z,9.70
2018-09-29T00:57:32.596Z,9.70
2018-09-29T01:00:01.009Z,9.70
2018-09-29T01:02:29.375Z,9.70
2018-09-29T01:04:57.815Z,9.70
2018-09-29T01:07:26.202Z,9.70
2018-09-29T01:09:54.574Z,9.60
2018-09-29T01:12:23.012Z,9.60
2018-09-29T01:14:52.456Z,9.60
2018-09-29T01:17:20.875Z,9.50
2018-09-29T01:19:49.296Z,9.60
2018-09-29T01:22:18.491Z,9.50
2018-09-29T01:24:47.706Z,9.50
2018-09-29T01:27:16.101Z,9.40
2018-09-29T01:29:44.473Z,9.30
2018-09-29T01:32:12.879Z,9.30
2018-09-29T01:34:41.768Z,9.30
2018-09-29T01:37:10.131Z,9.30
2018-09-29T01:39:38.507Z,9.20
2018-09-29T01:42:06.927Z,9.10
2018-09-29T01:44:35.353Z,9.10
2018-09-29T01:47:03.830Z,9.10
2018-09-29T01:49:32.230Z,9.10
2018-09-29T01:52:00.651Z,9.10
2018-09-29T01:54:29.070Z,9.10
2018-09-29T01:56:57.458Z,9.00
2018-09-29T01:59:25.912Z,9.00
2018-09-29T02:01:54.364Z,9.00
2018-09-29T02:04:22.798Z,8.90
2018-09-29T02:06:51.173Z,8.80
2018-09-29T02:09:19.550Z,8.90
2018-09-29T02:11:47.960Z,8.90
2018-09-29T02:14:16.363Z,8.80
2018-09-29T02:16:44.774Z,8.90
2018-09-29T02:19:13.986Z,8.80
2018-09-29T02:21:42.358Z,8.70
2018-09-29T02:24:10.820Z,8.70
2018-09-29T02:26:39.282Z,8.70
2018-09-29T02:29:07.691Z,8.70
2018-09-29T02:31:36.423Z,8.70
2018-09-29T02:34:04.853Z,8.60
2018-09-29T02:36:33.273Z,8.60
2018-09-29T02:39:01.732Z,8.70
2018-09-29T02:41:30.216Z,8.60
2018-09-29T02:43:59.419Z,8.60
2018-09-29T02:46:27.866Z,8.60
2018-09-29T02:48:57.022Z,8.50
2018-09-29T02:51:25.415Z,8.50
2018-09-29T02:53:53.806Z,8.50
2018-09-29T02:56:22.217Z,8.50
2018-09-29T02:58:50.843Z,8.40
2018-09-29T03:01:19.251Z,8.40
2018-09-29T03:03:47.597Z,8.40
2018-09-29T03:06:16.032Z,8.40
2018-09-29T03:08:45.027Z,8.40
2018-09-29T03:11:13.397Z,8.40
2018-09-29T03:13:41.803Z,8.40
2018-09-29T03:16:10.227Z,8.30
2018-09-29T03:18:38.630Z,8.30
2018-09-29T03:21:07.043Z,8.30
2018-09-29T03:23:35.448Z,8.30
2018-09-29T03:26:03.835Z,8.30
2018-09-29T03:28:32.222Z,8.30
2018-09-29T03:31:00.719Z,8.20
2018-09-29T03:33:29.171Z,8.20
2018-09-29T03:35:57.960Z,8.20
2018-09-29T03:38:26.331Z,8.20
2018-09-29T03:40:55.008Z,8.20
2018-09-29T03:43:23.446Z,8.20
2018-09-29T03:45:51.954Z,8.10
2018-09-29T03:48:20.365Z,8.10
2018-09-29T03:50:48.827Z,8.20
2018-09-29T03:53:17.298Z,8.10
2018-09-29T03:55:45.724Z,7.90
2018-09-29T03:58:14.356Z,8.00
2018-09-29T04:00:42.824Z,8.00
2018-09-29T04:03:11.218Z,8.10
2018-09-29T04:05:40.326Z,8.10
2018-09-29T04:08:08.793Z,8.00
2018-09-29T04:10:37.204Z,8.10
2018-09-29T04:13:05.587Z,8.10
2018-09-29T04:15:34.529Z,7.90
2018-09-29T04:18:02.955Z,8.00
2018-09-29T04:20:31.471Z,8.00
2018-09-29T04:22:59.843Z,7.90
2018-09-29T04:25:29.017Z,7.90
2018-09-29T04:27:57.501Z,7.80
2018-09-29T04:30:25.896Z,7.90
2018-09-29T04:32:54.260Z,7.90
2018-09-29T04:35:23.298Z,7.80
2018-09-29T04:37:51.763Z,7.80
2018-09-29T04:40:20.235Z,7.70
2018-09-29T04:42:48.635Z,7.70
2018-09-29T04:45:17.178Z,7.80
2018-09-29T04:47:46.132Z,7.80
2018-09-29T04:50:14.494Z,7.70
2018-09-29T04:52:42.921Z,7.70
2018-09-29T04:55:11.315Z,7.80
2018-09-29T04:57:39.709Z,7.80
2018-09-29T05:00:08.123Z,7.80
2018-09-29T05:02:36.584Z,7.70
2018-09-29T05:05:05.859Z,7.70
2018-09-29T05:07:34.264Z,7.70
2018-09-29T05:10:02.772Z,7.80
2018-09-29T05:12:31.185Z,7.80
2018-09-29T05:14:59.602Z,7.80
2018-09-29T05:17:27.982Z,7.80
2018-09-29T05:19:56.444Z,7.70
2018-09-29T05:22:24.813Z,7.60
2018-09-29T05:24:53.255Z,7.60
2018-09-29T05:27:21.635Z,7.70
2018-09-29T05:29:50.146Z,7.70
2018-09-29T05:32:18.546Z,7.80
2018-09-29T05:34:46.925Z,7.70
2018-09-29T05:37:15.338Z,7.70
2018-09-29T05:39:43.728Z,7.60
2018-09-29T05:42:12.268Z,7.70
2018-09-29T05:44:40.660Z,7.70
2018-09-29T05:47:09.583Z,7.70
2018-09-29T05:49:38.073Z,7.70
2018-09-29T05:52:06.426Z,7.80
2018-09-29T05:54:34.870Z,7.80
2018-09-29T05:57:03.465Z,7.80
2018-09-29T05:59:31.918Z,7.80
2018-09-29T06:02:00.385Z,7.80
2018-09-29T06:04:29.606Z,7.90
2018-09-29T06:06:58.018Z,8.00
2018-09-29T06:09:26.354Z,7.90
2018-09-29T06:11:54.780Z,8.00
2018-09-29T06:14:23.172Z,8.00
2018-09-29T06:16:51.866Z,7.80
2018-09-29T06:19:20.282Z,8.00
2018-09-29T06:21:49.394Z,8.10
2018-09-29T06:24:17.755Z,8.20
2018-09-29T06:26:46.169Z,8.20
2018-09-29T06:29:14.546Z,8.20
2018-09-29T06:31:42.985Z,8.20
2018-09-29T06:34:11.437Z,8.20
2018-09-29T06:36:39.807Z,8.30
2018-09-29T06:39:09.939Z,8.30
2018-09-29T06:41:38.410Z,8.30
2018-09-29T06:44:07.002Z,8.30
2018-09-29T06:46:35.374Z,8.30
2018-09-29T06:49:03.860Z,8.40
2018-09-29T06:51:32.573Z,8.40
2018-09-29T06:54:01.345Z,8.40
2018-09-29T06:56:29.780Z,8.50
2018-09-29T06:58:58.940Z,8.50
2018-09-29T07:01:27.348Z,8.50
2018-09-29T07:03:56.347Z,8.60
2018-09-29T07:06:24.727Z,8.70
2018-09-29T07:08:53.264Z,8.70
2018-09-29T07:11:21.706Z,8.60
2018-09-29T07:13:50.198Z,8.70
2018-09-29T07:16:18.620Z,8.80
2018-09-29T07:18:47.011Z,8.90
2018-09-29T07:21:15.607Z,9.00
2018-09-29T07:23:44.074Z,9.00
2018-09-29T07:26:12.535Z,9.10
2018-09-29T07:28:41.030Z,9.20
2018-09-29T07:31:09.995Z,9.30
2018-09-29T07:33:38.713Z,9.40
2018-09-29T07:36:08.135Z,9.60
2018-09-29T07:38:36.926Z,9.60
2018-09-29T07:41:05.402Z,9.60
2018-09-29T07:43:33.804Z,9.70
2018-09-29T07:46:02.298Z,9.70
2018-09-29T07:48:30.810Z,9.80
2018-09-29T07:50:59.280Z,10.00
2018-09-29T07:53:27.728Z,10.10
2018-09-29T07:55:56.293Z,10.20
2018-09-29T07:58:24.702Z,10.20
2018-09-29T08:00:53.128Z,10.40
2018-09-29T08:03:21.640Z,10.50
2018-09-29T08:05:49.994Z,10.50
2018-09-29T08:08:18.442Z,10.70
2018-09-29T08:10:46.935Z,10.70
2018-09-29T08:13:15.328Z,10.80
2018-09-29T08:15:43.720Z,11.00
2018-09-29T08:18:12.138Z,10.90
2018-09-29T08:20:40.558Z,11.00
2018-09-29T08:23:09.036Z,11.20
2018-09-29T08:25:37.446Z,11.40
2018-09-29T08:28:05.943Z,11.70
2018-09-29T08:30:35.155Z,12.40
2018-09-29T08:33:03.866Z,13.00
2018-09-29T08:35:32.328Z,14.20
2018-09-29T08:38:00.689Z,15.30
2018-09-29T08:40:29.131Z,16.00
2018-09-29T08:42:57.533Z,16.90
2018-09-29T08:45:25.991Z,17.70
2018-09-29T08:47:54.495Z,18.20
2018-09-29T08:50:22.872Z,18.40
2018-09-29T08:52:51.344Z,18.80
2018-09-29T08:55:19.758Z,19.70
2018-09-29T08:57:48.197Z,19.90
2018-09-29T09:00:16.581Z,19.70
2018-09-29T09:02:45.046Z,19.10
2018-09-29T09:05:13.459Z,18.80
2018-09-29T09:07:41.907Z,18.80
2018-09-29T09:10:10.298Z,19.00
2018-09-29T09:12:38.686Z,19.10
2018-09-29T09:15:07.228Z,19.70
2018-09-29T09:17:35.628Z,19.80
2018-09-29T09:20:04.088Z,19.60
2018-09-29T09:22:32.460Z,19.70
2018-09-29T09:25:01.011Z,20.00
2018-09-29T09:27:29.387Z,20.70
2018-09-29T09:29:57.911Z,20.60
2018-09-29T09:32:26.244Z,19.90
2018-09-29T09:34:54.636Z,19.70
2018-09-29T09:37:23.069Z,20.00
2018-09-29T09:39:51.642Z,20.50
2018-09-29T09:42:20.025Z,20.50
2018-09-29T09:44:48.578Z,20.80
2018-09-29T09:47:17.145Z,20.30
2018-09-29T09:49:45.580Z,19.70
2018-09-29T09:52:15.137Z,20.00
2018-09-29T09:54:43.696Z,20.30
2018-09-29T09:57:12.111Z,20.40
2018-09-29T09:59:40.511Z,20.40
2018-09-29T10:02:14.322Z,19.60
2018-09-29T10:04:42.791Z,20.00
2018-09-29T10:07:11.243Z,20.50
2018-09-29T10:09:39.628Z,20.60
2018-09-29T10:12:08.024Z,20.20
2018-09-29T10:14:36.490Z,20.50
2018-09-29T10:17:04.927Z,20.90
2018-09-29T10:19:33.340Z,21.40
2018-09-29T10:22:02.321Z,21.20
2018-09-29T10:24:31.524Z,21.40
2018-09-29T10:26:59.940Z,21.30
2018-09-29T10:29:28.395Z,21.70
2018-09-29T10:31:57.485Z,20.70
2018-09-29T10:34:25.929Z,20.80
2018-09-29T10:36:54.293Z,21.20
2018-09-29T10:39:22.787Z,20.80
2018-09-29T10:41:51.163Z,21.00
2018-09-29T10:44:19.808Z,21.00
2018-09-29T10:46:48.167Z,20.70
2018-09-29T10:49:16.605Z,20.70
2018-09-29T10:51:45.437Z,20.70
2018-09-29T10:54:13.984Z,21.00
2018-09-29T10:56:42.543Z,20.80
2018-09-29T10:59:10.959Z,21.10
2018-09-29T11:01:40.133Z,21.00
2018-09-29T11:04:08.597Z,20.70
2018-09-29T11:06:37.009Z,20.80
2018-09-29T11:09:08.263Z,21.10
2018-09-29T11:11:36.673Z,21.20
2018-09-29T11:14:05.214Z,21.00
2018-09-29T11:16:33.659Z,21.10
2018-09-29T11:19:02.092Z,20.60
2018-09-29T11:21:31.072Z,21.00
2018-09-29T11:23:59.468Z,21.50
2018-09-29T11:26:27.922Z,21.00
2018-09-29T11:28:56.276Z,21.20
2018-09-29T11:31:24.705Z,21.40
2018-09-29T11:33:53.101Z,21.20
2018-09-29T11:36:21.492Z,21.10
2018-09-29T11:38:49.887Z,21.60
2018-09-29T11:41:18.289Z,21.50
2018-09-29T11:43:46.699Z,21.60
2018-09-29T11:46:15.206Z,21.20
2018-09-29T11:48:43.608Z,21.10
2018-09-29T11:51:12.021Z,21.10
2018-09-29T11:53:40.432Z,21.20
2018-09-29T11:56:08.852Z,21.80
2018-09-29T11:58:37.142Z,22.40
2018-09-29T12:01:05.572Z,22.50
2018-09-29T12:03:34.091Z,22.00
2018-09-29T12:06:02.626Z,22.00
2018-09-29T12:08:30.931Z,21.60
2018-09-29T12:10:59.280Z,21.20
2018-09-29T12:13:27.762Z,21.20
2018-09-29T12:15:56.183Z,21.60
2018-09-29T12:18:24.685Z,22.00
2018-09-29T12:20:53.039Z,22.10
2018-09-29T12:23:21.444Z,22.00
2018-09-29T12:25:49.848Z,21.80
2018-09-29T12:28:18.226Z,21.60
2018-09-29T12:30:46.758Z,21.80
2018-09-29T12:33:15.142Z,21.80
2018-09-29T12:35:44.205Z,22.10
2018-09-29T12:38:12.631Z,22.00
2018-09-29T12:40:41.015Z,22.10
2018-09-29T12:43:09.428Z,22.20
2018-09-29T12:45:37.833Z,21.80
2018-09-29T12:48:06.367Z,21.80
2018-09-29T12:50:34.812Z,21.70
2018-09-29T12:53:03.178Z,22.10
2018-09-29T12:55:32.159Z,22.20
2018-09-29T12:58:00.559Z,21.60
2018-09-29T13:00:29.510Z,22.00
2018-09-29T13:02:57.893Z,22.20
2018-09-29T13:05:26.296Z,22.30
2018-09-29T13:07:54.627Z,22.10
2018-09-29T13:10:23.027Z,22.30
2018-09-29T13:12:51.431Z,22.10
2018-09-29T13:15:19.778Z,21.50
2018-09-29T13:17:48.194Z,21.80
2018-09-29T13:20:16.613Z,22.00
2018-09-29T13:22:45.045Z,21.90
2018-09-29T13:25:14.039Z,22.50
2018-09-29T13:27:42.430Z,22.30
2018-09-29T13:30:10.823Z,22.40
2018-09-29T13:32:40.075Z,22.20
2018-09-29T13:35:08.511Z,22.00
2018-09-29T13:37:36.891Z,21.80
2018-09-29T13:40:05.343Z,21.70
2018-09-29T13:42:34.443Z,21.70
2018-09-29T13:45:03.691Z,21.70
2018-09-29T13:47:32.105Z,21.20
2018-09-29T13:50:00.494Z,21.30
2018-09-29T13:52:29.200Z,21.30
2018-09-29T13:54:57.619Z,21.10
2018-09-29T13:57:26.004Z,21.10
2018-09-29T13:59:54.397Z,21.10
2018-09-29T14:02:22.818Z,20.90
2018-09-29T14:04:51.149Z,20.80
2018-09-29T14:07:19.515Z,20.80
2018-09-29T14:09:47.868Z,20.80
2018-09-29T14:12:16.342Z,20.60
2018-09-29T14:14:44.763Z,20.60
2018-09-29T14:17:13.326Z,21.00
2018-09-29T14:19:41.737Z,21.00
2018-09-29T14:22:10.108Z,21.00
2018-09-29T14:24:39.196Z,20.90
2018-09-29T14:27:07.564Z,20.90
2018-09-29T14:29:36.073Z,20.90
2018-09-29T14:32:04.482Z,20.60
2018-09-29T14:34:32.871Z,20.60
2018-09-29T14:37:01.314Z,20.50
2018-09-29T14:39:30.320Z,20.50
2018-09-29T14:41:58.739Z,20.50
2018-09-29T14:44:27.130Z,20.60
2018-09-29T14:46:55.542Z,20.50
2018-09-29T14:49:23.940Z,20.10
2018-09-29T14:51:52.336Z,20.30
2018-09-29T14:54:20.744Z,20.60
2018-09-29T14:56:49.179Z,20.70
2018-09-29T14:59:17.523Z,20.60
2018-09-29T15:01:46.215Z,20.50
2018-09-29T15:04:14.613Z,20.60
2018-09-29T15:06:42.983Z,20.40
2018-09-29T15:09:12.373Z,20.30
2018-09-29T15:11:40.951Z,20.10
2018-09-29T15:14:10.093Z,20.10
2018-09-29T15:16:38.683Z,19.90
2018-09-29T15:19:07.722Z,19.80
2018-09-29T15:21:36.134Z,19.80
2018-09-29T15:24:04.567Z,19.60
2018-09-29T15:26:32.939Z,19.40
2018-09-29T15:29:01.626Z,19.40
2018-09-29T15:31:29.989Z,19.10
2018-09-29T15:33:58.378Z,19.00
2018-09-29T15:36:26.710Z,18.90
2018-09-29T15:38:55.595Z,19.00
2018-09-29T15:41:24.006Z,18.90
2018-09-29T15:43:52.458Z,18.70
2018-09-29T15:46:20.881Z,18.50
2018-09-29T15:48:49.464Z,18.30
2018-09-29T15:51:17.843Z,18.30
2018-09-29T15:53:46.362Z,18.30
2018-09-29T15:56:14.773Z,17.90
2018-09-29T15:58:43.205Z,17.80
2018-09-29T16:01:11.595Z,17.70
2018-09-29T16:03:40.028Z,17.50
2018-09-29T16:06:09.668Z,17.40
2018-09-29T16:08:38.036Z,17.50
2018-09-29T16:11:07.216Z,17.50
2018-09-29T16:13:35.678Z,17.50
2018-09-29T16:16:04.204Z,17.50
2018-09-29T16:18:32.585Z,17.30
2018-09-29T16:21:01.739Z,17.20
2018-09-29T16:23:30.179Z,17.10
2018-09-29T16:25:58.691Z,17.00
2018-09-29T16:28:27.052Z,16.90
2018-09-29T16:30:55.464Z,16.90
2018-09-29T16:33:23.810Z,16.80
2018-09-29T16:35:52.214Z,16.70
2018-09-29T16:38:20.636Z,16.70
2018-09-29T16:40:48.933Z,16.60
2018-09-29T16:43:17.351Z,16.50
2018-09-29T16:45:47.302Z,16.50
2018-09-29T16:48:15.709Z,16.50
2018-09-29T16:50:44.127Z,16.40
2018-09-29T16:53:12.535Z,16.30
2018-09-29T16:55:40.976Z,16.30
2018-09-29T16:58:09.425Z,16.20
2018-09-29T17:00:37.835Z,16.10
2018-09-29T17:03:06.302Z,16.10
2018-09-29T17:05:34.801Z,16.10
2018-09-29T17:08:03.423Z,16.00
2018-09-29T17:10:31.879Z,15.90
2018-09-29T17:13:00.300Z,15.80
2018-09-29T17:15:28.754Z,15.70
2018-09-29T17:17:57.167Z,15.70
2018-09-29T17:20:25.593Z,15.60
2018-09-29T17:22:54.476Z,15.50
2018-09-29T17:25:22.919Z,15.50
2018-09-29T17:27:51.287Z,15.40
2018-09-29T17:30:19.681Z,15.40
2018-09-29T17:32:48.119Z,15.20
2018-09-29T17:35:16.486Z,15.20
2018-09-29T17:37:44.883Z,15.20
2018-09-29T17:40:13.262Z,15.00
2018-09-29T17:42:41.707Z,14.90
2018-09-29T17:45:10.107Z,14.90
2018-09-29T17:47:38.530Z,14.90
2018-09-29T17:50:07.930Z,14.80
2018-09-29T17:52:36.367Z,14.70
2018-09-29T17:55:04.812Z,14.70
2018-09-29T17:57:33.227Z,14.70
2018-09-29T18:00:01.654Z,14.60
2018-09-29T18:02:30.147Z,14.50
2018-09-29T18:04:58.558Z,14.40
2018-09-29T18:07:26.972Z,14.50
2018-09-29T18:09:55.387Z,14.50
2018-09-29T18:12:23.772Z,14.40
2018-09-29T18:14:52.172Z,14.30
2018-09-29T18:17:20.619Z,14.30
2018-09-29T18:19:49.054Z,14.20
2018-09-29T18:22:17.523Z,14.20
2018-09-29T18:24:45.936Z,14.10
2018-09-29T18:27:14.382Z,14.00
2018-09-29T18:29:42.910Z,14.00
2018-09-29T18:32:11.643Z,14.00
2018-09-29T18:34:40.126Z,14.10
2018-09-29T18:37:08.627Z,14.00
2018-09-29T18:39:37.148Z,13.90
2018-09-29T18:42:05.574Z,13.90
2018-09-29T18:44:34.079Z,13.90
2018-09-29T18:47:02.571Z,13.90
2018-09-29T18:49:31.076Z,13.70
2018-09-29T18:51:59.865Z,13.60
2018-09-29T18:54:28.354Z,13.70
2018-09-29T18:56:56.794Z,13.70
2018-09-29T18:59:25.287Z,13.70
2018-09-29T19:01:53.875Z,13.60
2018-09-29T19:04:22.354Z,13.60
2018-09-29T19:06:50.716Z,13.50
2018-09-29T19:09:19.212Z,13.40
2018-09-29T19:11:47.622Z,13.20
2018-09-29T19:14:15.995Z,13.20
2018-09-29T19:16:44.498Z,13.30
2018-09-29T19:19:12.921Z,13.40
2018-09-29T19:21:41.303Z,13.30
2018-09-29T19:24:09.814Z,13.20
2018-09-29T19:26:38.264Z,13.20
2018-09-29T19:29:06.788Z,13.20
2018-09-29T19:31:35.263Z,13.00
2018-09-29T19:34:03.732Z,13.00
2018-09-29T19:36:32.367Z,13.00
2018-09-29T19:39:00.875Z,13.00
2018-09-29T19:41:29.400Z,12.90
2018-09-29T19:43:57.866Z,12.90
2018-09-29T19:46:26.325Z,12.90
2018-09-29T19:48:54.749Z,12.80
2018-09-29T19:51:23.234Z,12.70
2018-09-29T19:53:51.679Z,12.60
2018-09-29T19:56:20.198Z,12.50
2018-09-29T19:58:48.697Z,12.50
2018-09-29T20:01:17.132Z,12.50
2018-09-29T20:03:45.617Z,12.40
2018-09-29T20:06:14.011Z,12.40
2018-09-29T20:08:42.516Z,12.30
2018-09-29T20:11:10.899Z,12.20
2018-09-29T20:13:39.334Z,12.10
2018-09-29T20:16:08.067Z,12.10
2018-09-29T20:18:36.483Z,12.00
2018-09-29T20:21:04.916Z,12.00
2018-09-29T20:23:33.486Z,12.00
2018-09-29T20:26:01.934Z,11.80
2018-09-29T20:28:30.338Z,11.70
2018-09-29T20:30:58.800Z,11.70
2018-09-29T20:33:27.356Z,11.80
2018-09-29T20:35:56.130Z,11.80
2018-09-29T20:38:24.571Z,11.70
2018-09-29T20:40:52.998Z,11.70
2018-09-29T20:43:21.391Z,11.60
2018-09-29T20:45:49.956Z,11.50
2018-09-29T20:48:18.378Z,11.50
2018-09-29T20:50:46.817Z,11.50
2018-09-29T20:53:15.215Z,11.40
2018-09-29T20:55:43.686Z,11.30
2018-09-29T20:58:12.134Z,11.20
2018-09-29T21:00:40.582Z,11.20
2018-09-29T21:03:08.953Z,11.20
2018-09-29T21:05:37.420Z,11.20
2018-09-29T21:08:05.879Z,11.20
2018-09-29T21:10:34.282Z,11.20
2018-09-29T21:13:02.812Z,11.00
2018-09-29T21:15:31.116Z,11.00
2018-09-29T21:17:59.579Z,11.10
2018-09-29T21:20:28.190Z,11.00
2018-09-29T21:22:56.683Z,11.10
2018-09-29T21:25:25.178Z,11.10
2018-09-29T21:30:41.677Z,11.10
2018-09-29T21:33:10.062Z,11.10
2018-09-29T21:35:38.425Z,11.10
2018-09-29T21:38:06.843Z,11.10
2018-09-29T21:40:35.198Z,11.00
2018-09-29T21:43:04.934Z,11.10
2018-09-29T21:45:33.414Z,11.00
2018-09-29T21:48:01.804Z,11.00
2018-09-29T21:50:30.408Z,10.90
2018-09-29T21:53:02.954Z,10.80
2018-09-29T21:55:39.676Z,10.70
2018-09-29T21:58:09.287Z,10.70
2018-09-29T22:00:45.242Z,10.70
2018-09-29T22:03:15.107Z,10.70
2018-09-29T22:05:44.000Z,10.60
2018-09-29T22:08:13.200Z,10.50
2018-09-29T22:10:41.824Z,10.50
2018-09-29T22:13:11.123Z,10.60
2018-09-29T22:15:39.526Z,10.70
2018-09-29T22:18:07.889Z,10.70
2018-09-29T22:20:36.258Z,10.70
2018-09-29T22:23:04.689Z,10.70
2018-09-29T22:25:33.065Z,10.80
2018-09-29T22:28:01.502Z,10.70
2018-09-29T22:30:29.974Z,10.50
2018-09-29T22:32:58.406Z,10.40
2018-09-29T22:35:26.849Z,10.30
2018-09-29T22:37:55.598Z,10.40
2018-09-29T22:40:24.200Z,10.30
2018-09-29T22:42:52.845Z,10.20
2018-09-29T22:45:21.325Z,10.30
2018-09-29T22:47:49.934Z,10.30
2018-09-29T22:50:18.338Z,10.30
2018-09-29T22:52:47.328Z,10.20
2018-09-29T22:55:15.965Z,10.20
2018-09-29T22:57:44.456Z,10.10
2018-09-29T23:00:12.929Z,10.10
2018-09-29T23:02:41.315Z,10.20
2018-09-29T23:05:09.691Z,10.20
2018-09-29T23:07:38.502Z,10.30
2018-09-29T23:10:06.877Z,10.30
2018-09-29T23:12:35.325Z,10.30
2018-09-29T23:15:03.845Z,10.20
2018-09-29T23:17:32.203Z,10.10
2018-09-29T23:20:00.623Z,10.10
2018-09-29T23:22:29.578Z,10.20
2018-09-29T23:24:57.988Z,10.00
2018-09-29T23:27:26.375Z,10.00
2018-09-29T23:29:54.733Z,10.10
2018-09-29T23:32:24.000Z,10.10
2018-09-29T23:34:52.402Z,9.90
2018-09-29T23:37:20.723Z,9.80
2018-09-29T23:39:49.102Z,9.80
2018-09-29T23:42:17.482Z,9.80
2018-09-29T23:44:45.930Z,9.80
2018-09-29T23:47:14.341Z,9.70
2018-09-29T23:49:42.718Z,9.80
2018-09-29T23:52:11.227Z,9.80
2018-09-29T23:54:39.728Z,9.80
2018-09-29T23:57:08.818Z,9.60
2018-09-29T23:59:37.259Z,9.60
